createdAt,value
2019-05-10T00:01:58.111Z,1.10
2019-05-10T00:05:21.037Z,1.20
2019-05-10T00:08:43.648Z,0.90
2019-05-10T00:12:07.741Z,1.10
2019-05-10T00:15:14.400Z,1.20
2019-05-10T00:18:19.548Z,1.30
2019-05-10T00:21:25.810Z,2.47
2019-05-10T00:24:31.083Z,1.50
2019-05-10T00:27:36.189Z,1.50
2019-05-10T00:30:41.388Z,1.80
2019-05-10T00:33:47.588Z,1.60
2019-05-10T00:36:52.775Z,1.63
2019-05-10T00:39:57.937Z,1.90
2019-05-10T00:43:03.109Z,1.40
2019-05-10T00:46:08.260Z,1.30
2019-05-10T00:49:13.406Z,1.70
2019-05-10T00:52:18.561Z,1.30
2019-05-10T00:55:23.807Z,1.47
2019-05-10T00:58:28.926Z,1.80
2019-05-10T01:01:34.085Z,1.60
2019-05-10T01:04:39.668Z,1.80
2019-05-10T01:07:44.782Z,1.80
2019-05-10T01:10:49.934Z,1.90
2019-05-10T01:13:55.063Z,1.80
2019-05-10T01:17:00.215Z,2.00
2019-05-10T01:20:05.626Z,2.30
2019-05-10T01:23:10.821Z,1.70
2019-05-10T01:26:15.997Z,2.20
2019-05-10T01:29:21.098Z,2.30
2019-05-10T01:32:26.327Z,1.97
2019-05-10T01:35:31.470Z,2.33
2019-05-10T01:38:36.577Z,1.77
2019-05-10T01:41:41.792Z,2.10
2019-05-10T01:44:46.945Z,1.93
2019-05-10T01:47:52.125Z,2.20
2019-05-10T01:50:57.303Z,2.10
2019-05-10T01:54:02.489Z,2.20
2019-05-10T01:57:07.606Z,2.37
2019-05-10T02:00:14.666Z,2.50
2019-05-10T02:03:19.890Z,2.37
2019-05-10T02:06:24.987Z,2.50
2019-05-10T02:09:33.253Z,2.40
2019-05-10T02:12:37.089Z,2.30
2019-05-10T02:15:42.252Z,2.10
2019-05-10T02:18:47.400Z,2.10
2019-05-10T02:21:52.639Z,2.10
2019-05-10T02:24:57.778Z,2.20
2019-05-10T02:28:02.923Z,2.70
2019-05-10T02:31:08.111Z,2.30
2019-05-10T02:34:13.327Z,2.27
2019-05-10T02:37:18.541Z,2.70
2019-05-10T02:40:23.630Z,2.70
2019-05-10T02:43:28.791Z,2.60
2019-05-10T02:46:34.294Z,2.60
2019-05-10T02:49:39.413Z,2.40
2019-05-10T02:52:44.554Z,2.90
2019-05-10T02:55:50.473Z,2.83
2019-05-10T02:58:57.420Z,2.93
2019-05-10T03:02:05.530Z,3.80
2019-05-10T03:05:11.217Z,2.90
2019-05-10T03:08:16.765Z,2.77
2019-05-10T03:11:21.927Z,2.90
2019-05-10T03:14:30.015Z,3.20
2019-05-10T03:17:38.388Z,3.03
2019-05-10T03:20:45.135Z,3.37
2019-05-10T03:23:50.539Z,3.10
2019-05-10T03:26:55.731Z,2.87
2019-05-10T03:30:00.889Z,2.60
2019-05-10T03:33:06.101Z,2.70
2019-05-10T03:36:11.361Z,2.93
2019-05-10T03:39:16.609Z,2.50
2019-05-10T03:42:21.766Z,3.13
2019-05-10T03:45:27.952Z,2.60
2019-05-10T03:48:33.165Z,2.80
2019-05-10T03:51:38.302Z,3.27
2019-05-10T03:54:43.502Z,3.40
2019-05-10T03:57:48.667Z,3.27
2019-05-10T04:00:54.008Z,3.13
2019-05-10T04:03:59.197Z,3.67
2019-05-10T04:07:04.285Z,2.90
2019-05-10T04:10:09.850Z,2.97
2019-05-10T04:13:15.029Z,2.70
2019-05-10T04:16:20.142Z,2.60
2019-05-10T04:19:25.349Z,2.50
2019-05-10T04:22:31.548Z,2.50
2019-05-10T04:25:36.654Z,2.37
2019-05-10T04:28:41.792Z,2.70
2019-05-10T04:31:46.986Z,1.83
2019-05-10T04:34:52.136Z,2.97
2019-05-10T04:37:57.320Z,2.40
2019-05-10T04:41:02.415Z,2.70
2019-05-10T04:44:07.527Z,3.30
2019-05-10T04:47:12.654Z,3.50
2019-05-10T04:50:17.816Z,3.93
2019-05-10T04:53:22.981Z,3.67
2019-05-10T04:56:28.185Z,3.60
2019-05-10T04:59:33.388Z,3.40
2019-05-10T05:02:39.616Z,3.20
2019-05-10T05:05:44.821Z,3.23
2019-05-10T05:08:49.974Z,3.73
2019-05-10T05:11:55.153Z,2.80
2019-05-10T05:15:00.477Z,3.03
2019-05-10T05:18:05.635Z,2.60
2019-05-10T05:21:10.864Z,2.37
2019-05-10T05:24:17.091Z,2.80
2019-05-10T05:27:22.988Z,2.20
2019-05-10T05:30:28.079Z,2.20
2019-05-10T05:33:33.285Z,2.57
2019-05-10T05:36:38.398Z,2.33
2019-05-10T05:39:43.527Z,2.50
2019-05-10T05:42:48.658Z,2.17
2019-05-10T05:45:53.719Z,1.80
2019-05-10T05:48:58.926Z,2.17
2019-05-10T05:52:04.072Z,2.43
2019-05-10T05:55:09.471Z,2.30
2019-05-10T05:58:25.793Z,2.10
2019-05-10T06:01:26.109Z,2.00
2019-05-10T06:04:28.411Z,1.90
2019-05-10T06:07:37.939Z,2.00
2019-05-10T06:10:43.793Z,2.10
2019-05-10T06:13:48.264Z,1.40
2019-05-10T06:16:53.356Z,2.00
2019-05-10T06:20:00.827Z,1.97
2019-05-10T06:23:07.146Z,1.80
2019-05-10T06:26:21.046Z,2.27
2019-05-10T06:29:19.886Z,1.87
2019-05-10T06:32:25.464Z,1.80
2019-05-10T06:35:30.832Z,1.50
2019-05-10T06:38:36.109Z,2.07
2019-05-10T06:41:41.214Z,1.57
2019-05-10T06:44:46.456Z,1.80
2019-05-10T06:47:53.491Z,1.57
2019-05-10T06:51:02.753Z,1.63
2019-05-10T06:54:05.521Z,1.60
2019-05-10T06:57:11.166Z,1.60
2019-05-10T07:00:17.692Z,2.13
2019-05-10T07:03:23.767Z,1.60
2019-05-10T07:06:29.948Z,1.80
2019-05-10T07:10:00.599Z,1.53
2019-05-10T07:12:42.064Z,1.40
2019-05-10T07:15:47.280Z,1.80
2019-05-10T07:18:54.869Z,1.30
2019-05-10T07:21:59.290Z,1.87
2019-05-10T07:25:07.235Z,1.30
2019-05-10T07:28:15.883Z,1.30
2019-05-10T07:31:18.437Z,1.40
2019-05-10T07:34:23.637Z,1.40
2019-05-10T07:37:28.779Z,1.23
2019-05-10T07:40:33.920Z,1.13
2019-05-10T07:43:39.071Z,1.10
2019-05-10T07:46:46.432Z,1.20
2019-05-10T07:49:52.224Z,1.30
2019-05-10T07:52:57.379Z,1.57
2019-05-10T07:56:06.037Z,1.20
2019-05-10T07:59:09.347Z,1.33
2019-05-10T08:02:14.968Z,1.57
2019-05-10T08:05:20.205Z,1.00
2019-05-10T08:08:25.392Z,1.30
2019-05-10T08:11:30.543Z,1.00
2019-05-10T08:14:35.714Z,1.27
2019-05-10T08:17:45.332Z,1.30
2019-05-10T08:20:53.756Z,1.10
2019-05-10T08:23:59.096Z,1.40
2019-05-10T08:27:09.575Z,1.00
2019-05-10T08:30:24.296Z,1.17
2019-05-10T08:33:15.810Z,1.00
2019-05-10T08:36:21.891Z,1.20
2019-05-10T08:39:27.271Z,1.20
2019-05-10T08:42:43.848Z,1.20
2019-05-10T08:45:44.851Z,0.97
2019-05-10T08:48:51.306Z,1.03
2019-05-10T08:51:54.638Z,1.33
2019-05-10T08:55:02.499Z,1.27
2019-05-10T08:58:08.122Z,1.40
2019-05-10T09:01:25.827Z,1.50
2019-05-10T09:04:22.268Z,1.20
2019-05-10T09:07:29.421Z,1.20
2019-05-10T09:10:34.434Z,1.13
2019-05-10T09:13:42.621Z,1.10
2019-05-10T09:16:56.520Z,1.20
2019-05-10T09:19:53.328Z,1.20
2019-05-10T09:22:58.519Z,1.20
2019-05-10T09:26:10.574Z,1.10
2019-05-10T09:29:12.102Z,0.90
2019-05-10T09:32:23.361Z,1.37
2019-05-10T09:35:24.194Z,1.30
2019-05-10T09:38:34.875Z,1.07
2019-05-10T09:41:38.399Z,1.10
2019-05-10T09:44:45.596Z,1.10
2019-05-10T09:47:50.142Z,1.00
2019-05-10T09:50:57.172Z,1.37
2019-05-10T09:54:02.104Z,1.20
2019-05-10T09:57:08.197Z,1.20
2019-05-10T10:00:14.118Z,1.10
2019-05-10T10:03:19.289Z,0.70
2019-05-10T10:06:24.523Z,1.10
2019-05-10T10:09:34.698Z,1.30
2019-05-10T10:12:37.310Z,1.10
2019-05-10T10:15:42.548Z,0.97
2019-05-10T10:18:47.847Z,1.13
2019-05-10T10:21:53.011Z,1.00
2019-05-10T10:25:00.645Z,0.73
2019-05-10T10:28:08.352Z,1.17
2019-05-10T10:31:26.263Z,0.90
2019-05-10T10:34:18.921Z,0.93
2019-05-10T10:37:28.386Z,1.60
2019-05-10T10:40:35.398Z,1.30
2019-05-10T10:43:37.903Z,1.30
2019-05-10T10:46:43.030Z,1.20
2019-05-10T10:49:48.244Z,1.10
2019-05-10T10:52:53.388Z,0.90
2019-05-10T10:56:03.521Z,1.27
2019-05-10T10:59:07.523Z,1.13
2019-05-10T11:02:33.080Z,1.10
2019-05-10T11:05:19.122Z,1.10
2019-05-10T11:08:24.359Z,1.13
2019-05-10T11:11:38.445Z,1.20
2019-05-10T11:14:40.062Z,1.10
2019-05-10T11:17:43.405Z,1.37
2019-05-10T11:20:49.800Z,1.17
2019-05-10T11:23:55.414Z,1.07
2019-05-10T11:27:01.132Z,1.10
2019-05-10T11:30:07.290Z,0.70
2019-05-10T11:33:25.826Z,1.30
2019-05-10T11:36:21.122Z,0.93
2019-05-10T11:39:26.989Z,1.00
2019-05-10T11:42:32.228Z,1.00
2019-05-10T11:45:37.418Z,0.70
2019-05-10T11:48:44.053Z,0.90
2019-05-10T11:51:54.757Z,0.87
2019-05-10T11:54:56.111Z,1.00
2019-05-10T12:01:14.755Z,0.87
2019-05-10T12:07:27.468Z,1.20
2019-05-10T12:10:28.765Z,1.00
2019-05-10T12:13:33.957Z,0.90
2019-05-10T12:16:42.085Z,0.90
2019-05-10T12:19:50.585Z,1.00
2019-05-10T12:22:52.883Z,0.90
2019-05-10T12:26:26.526Z,0.97
2019-05-10T12:26:30.935Z,0.80
2019-05-10T12:27:13.848Z,0.73
2019-05-10T12:29:11.962Z,0.83
2019-05-10T12:32:12.135Z,1.00
2019-05-10T12:35:17.340Z,1.10
2019-05-10T12:38:29.112Z,0.70
2019-05-10T12:41:31.648Z,0.73
2019-05-10T12:44:38.885Z,0.77
2019-05-10T12:47:43.395Z,0.80
2019-05-10T12:50:52.263Z,0.97
2019-05-10T12:53:56.571Z,0.60
2019-05-10T12:57:01.728Z,0.60
2019-05-10T13:00:13.067Z,0.90
2019-05-10T13:03:18.859Z,0.90
2019-05-10T13:06:22.019Z,0.60
2019-05-10T13:09:38.596Z,0.63
2019-05-10T13:12:36.917Z,0.70
2019-05-10T13:15:41.034Z,0.83
2019-05-10T13:18:52.301Z,0.50
2019-05-10T13:21:58.725Z,0.70
2019-05-10T13:25:01.077Z,0.80
2019-05-10T13:28:11.047Z,1.03
2019-05-10T13:31:15.237Z,0.70
2019-05-10T13:34:19.957Z,0.70
2019-05-10T13:37:25.402Z,0.67
2019-05-10T13:40:30.661Z,0.67
2019-05-10T13:43:35.793Z,0.60
2019-05-10T13:46:40.957Z,0.70
2019-05-10T13:49:48.671Z,0.70
2019-05-10T13:52:53.047Z,0.70
2019-05-10T13:55:58.170Z,1.17
2019-05-10T13:59:13.674Z,0.80
2019-05-10T14:02:10.217Z,0.70
2019-05-10T14:05:17.599Z,0.90
2019-05-10T14:08:22.214Z,0.60
2019-05-10T14:11:27.495Z,0.67
2019-05-10T14:14:32.644Z,1.00
2019-05-10T14:17:37.806Z,0.80
2019-05-10T14:20:43.021Z,1.10
2019-05-10T14:23:48.177Z,0.60
2019-05-10T14:26:57.089Z,0.70
2019-05-10T14:30:00.250Z,0.63
2019-05-10T14:33:08.675Z,0.67
2019-05-10T14:36:12.185Z,0.77
2019-05-10T14:39:17.365Z,0.70
2019-05-10T14:42:30.437Z,0.80
2019-05-10T14:45:29.343Z,0.80
2019-05-10T14:48:35.543Z,0.70
2019-05-10T14:51:57.737Z,0.73
2019-05-10T14:54:49.855Z,0.73
2019-05-10T14:57:54.828Z,1.00
2019-05-10T15:01:00.046Z,0.90
2019-05-10T15:04:05.160Z,0.80
2019-05-10T15:07:14.321Z,0.87
2019-05-10T15:10:17.279Z,0.67
2019-05-10T15:13:26.105Z,0.73
2019-05-10T15:16:30.791Z,0.90
2019-05-10T15:19:36.323Z,0.90
2019-05-10T15:22:41.502Z,0.93
2019-05-10T15:25:56.729Z,0.87
2019-05-10T15:28:53.456Z,0.60
2019-05-10T15:31:58.664Z,0.80
2019-05-10T15:35:07.226Z,0.70
2019-05-10T15:38:10.671Z,0.90
2019-05-10T15:41:16.902Z,0.70
2019-05-10T15:44:30.438Z,0.80
2019-05-10T15:47:29.739Z,0.80
2019-05-10T15:50:38.691Z,0.70
2019-05-10T15:53:41.868Z,0.80
2019-05-10T15:56:47.044Z,1.00
2019-05-10T15:59:56.798Z,0.80
2019-05-10T16:02:58.991Z,0.80
2019-05-10T16:06:04.171Z,0.80
2019-05-10T16:09:18.913Z,0.67
2019-05-10T16:12:28.883Z,1.00
2019-05-10T16:15:35.255Z,1.13
2019-05-10T16:18:43.423Z,0.87
2019-05-10T16:21:52.260Z,1.00
2019-05-10T16:25:02.445Z,0.77
2019-05-10T16:28:08.076Z,0.80
2019-05-10T16:31:14.114Z,0.80
2019-05-10T16:34:20.094Z,1.10
2019-05-10T16:37:26.571Z,0.80
2019-05-10T16:40:35.893Z,1.07
2019-05-10T16:43:41.221Z,1.00
2019-05-10T16:46:47.496Z,0.93
2019-05-10T16:49:53.402Z,0.83
2019-05-10T16:53:05.495Z,0.70
2019-05-10T16:56:06.539Z,0.90
2019-05-10T16:59:11.728Z,1.17
2019-05-10T17:02:17.019Z,0.80
2019-05-10T17:05:22.305Z,0.80
2019-05-10T17:08:30.773Z,0.90
2019-05-10T17:11:34.372Z,0.90
2019-05-10T17:14:39.547Z,0.73
2019-05-10T17:17:45.158Z,0.73
2019-05-10T17:20:52.537Z,1.77
2019-05-10T17:23:58.890Z,8.00
2019-05-10T17:27:04.204Z,1.30
2019-05-10T17:30:09.745Z,1.13
2019-05-10T17:33:14.911Z,1.30
2019-05-10T17:36:21.506Z,1.27
2019-05-10T17:39:32.401Z,0.80
2019-05-10T17:42:35.654Z,0.80
2019-05-10T17:45:42.391Z,1.00
2019-05-10T17:48:49.528Z,0.80
2019-05-10T17:51:54.909Z,1.10
2019-05-10T17:55:00.128Z,0.90
2019-05-10T17:58:05.354Z,1.40
2019-05-10T18:01:10.697Z,1.40
2019-05-10T18:04:15.915Z,1.00
2019-05-10T18:07:21.133Z,1.33
2019-05-10T18:10:26.353Z,0.80
2019-05-10T18:13:35.468Z,0.97
2019-05-10T18:16:41.894Z,1.00
2019-05-10T18:19:45.264Z,0.97
2019-05-10T18:22:50.488Z,1.10
2019-05-10T18:25:58.651Z,0.97
2019-05-10T18:29:02.694Z,1.00
2019-05-10T18:32:10.992Z,0.90
2019-05-10T18:35:16.918Z,0.90
2019-05-10T18:38:21.657Z,0.90
2019-05-10T18:41:26.827Z,1.20
2019-05-10T18:44:32.047Z,0.97
2019-05-10T18:47:37.240Z,0.87
2019-05-10T18:50:45.562Z,1.10
2019-05-10T18:53:49.276Z,0.90
2019-05-10T18:56:54.613Z,1.07
2019-05-10T18:59:59.898Z,1.20
2019-05-10T19:03:05.227Z,1.30
2019-05-10T19:06:11.323Z,1.10
2019-05-10T19:09:17.697Z,1.60
2019-05-10T19:12:23.750Z,1.33
2019-05-10T19:15:29.377Z,1.13
2019-05-10T19:18:34.602Z,1.10
2019-05-10T19:21:39.833Z,1.70
2019-05-10T19:24:45.019Z,3.33
2019-05-10T19:27:51.005Z,2.23
2019-05-10T19:30:58.562Z,2.13
2019-05-10T19:34:08.993Z,2.33
2019-05-10T19:37:11.305Z,2.00
2019-05-10T19:40:18.832Z,2.23
2019-05-10T19:43:24.141Z,1.90
2019-05-10T19:46:30.023Z,1.73
2019-05-10T19:49:36.215Z,1.90
2019-05-10T19:52:41.461Z,1.60
2019-05-10T19:55:51.325Z,1.80
2019-05-10T19:58:53.631Z,1.60
2019-05-10T20:01:58.899Z,1.40
2019-05-10T20:05:04.470Z,1.90
2019-05-10T20:08:09.622Z,1.97
2019-05-10T20:11:14.816Z,1.87
2019-05-10T20:14:19.995Z,1.83
2019-05-10T20:17:25.292Z,1.93
2019-05-10T20:20:30.462Z,2.07
2019-05-10T20:23:35.643Z,2.20
2019-05-10T20:26:40.858Z,1.97
2019-05-10T20:29:47.103Z,1.80
2019-05-10T20:32:52.346Z,2.23
2019-05-10T20:35:57.530Z,2.10
2019-05-10T20:39:02.750Z,1.73
2019-05-10T20:42:07.996Z,1.93
2019-05-10T20:45:13.764Z,2.23
2019-05-10T20:48:19.280Z,2.03
2019-05-10T20:51:24.409Z,2.67
2019-05-10T20:54:29.647Z,2.50
2019-05-10T20:57:34.828Z,2.90
2019-05-10T21:00:40.018Z,3.20
2019-05-10T21:03:45.214Z,3.30
2019-05-10T21:06:50.429Z,2.90
2019-05-10T21:09:55.539Z,2.70
2019-05-10T21:13:00.769Z,3.03
2019-05-10T21:16:05.945Z,2.90
2019-05-10T21:19:11.107Z,2.70
2019-05-10T21:22:16.256Z,2.60
2019-05-10T21:25:21.412Z,2.50
2019-05-10T21:28:26.510Z,2.47
2019-05-10T21:31:31.679Z,2.30
2019-05-10T21:34:36.920Z,2.50
2019-05-10T21:37:42.173Z,3.40
2019-05-10T21:40:47.404Z,2.60
2019-05-10T21:43:52.631Z,2.60
2019-05-10T21:46:57.735Z,2.53
2019-05-10T21:50:02.901Z,2.90
2019-05-10T21:53:08.109Z,2.63
2019-05-10T21:56:13.287Z,2.93
2019-05-10T21:59:18.431Z,3.70
2019-05-10T22:02:23.571Z,3.33
2019-05-10T22:05:28.738Z,3.33
2019-05-10T22:08:48.428Z,3.40
2019-05-10T22:11:40.959Z,3.30
2019-05-10T22:14:46.191Z,3.30
2019-05-10T22:17:51.401Z,3.30
2019-05-10T22:20:56.653Z,3.10
2019-05-10T22:24:01.865Z,3.00
2019-05-10T22:27:07.168Z,2.93
2019-05-10T22:30:12.784Z,2.93
2019-05-10T22:33:18.141Z,3.57
2019-05-10T22:36:23.291Z,3.07
2019-05-10T22:39:28.542Z,3.43
2019-05-10T22:42:33.748Z,3.10
2019-05-10T22:45:38.889Z,3.50
2019-05-10T22:48:44.107Z,3.40
2019-05-10T22:51:49.281Z,2.90
2019-05-10T22:54:54.467Z,2.70
2019-05-10T22:57:59.679Z,2.80
2019-05-10T23:01:04.867Z,2.50
2019-05-10T23:04:10.108Z,2.90
2019-05-10T23:07:16.581Z,2.63
2019-05-10T23:10:21.793Z,2.73
2019-05-10T23:13:26.971Z,2.93
2019-05-10T23:16:32.236Z,3.20
2019-05-10T23:19:37.389Z,2.90
2019-05-10T23:22:42.600Z,3.20
2019-05-10T23:25:47.791Z,2.53
2019-05-10T23:28:52.924Z,3.43
2019-05-10T23:31:58.104Z,3.80
2019-05-10T23:35:03.875Z,3.77
2019-05-10T23:38:09.031Z,3.47
2019-05-10T23:41:14.120Z,3.80
2019-05-10T23:44:19.293Z,3.33
2019-05-10T23:47:24.481Z,3.50
2019-05-10T23:50:29.777Z,3.50
2019-05-10T23:53:34.951Z,3.53
2019-05-10T23:56:40.111Z,4.67
2019-05-10T23:59:45.254Z,3.70
